sensor_id;sensor_type;location;lat;lon;timestamp;pressure;altitude;pressure_sealevel;temperature;humidity
7524;BME280;3803;51.666;7.630;2023-04-25T00:00:02;100296.34;;;7.89;59.31
7524;BME280;3803;51.666;7.630;2023-04-25T00:00:32;100304.34;;;7.95;58.79
7524;BME280;3803;51.666;7.630;2023-04-25T00:00:53;100296.28;;;7.88;58.87
7524;BME280;3803;51.666;7.630;2023-04-25T00:01:13;100321.69;;;7.97;58.87
7524;BME280;3803;51.666;7.630;2023-04-25T00:01:34;100301.47;;;7.88;58.97
7524;BME280;3803;51.666;7.630;2023-04-25T00:01:56;100306.88;;;7.94;58.84
7524;BME280;3803;51.666;7.630;2023-04-25T00:02:18;100317.50;;;8.02;59.14
7524;BME280;3803;51.666;7.630;2023-04-25T00:03:04;100314.72;;;7.95;58.91
7524;BME280;3803;51.666;7.630;2023-04-25T00:03:26;100305.00;;;7.90;59.71
7524;BME280;3803;51.666;7.630;2023-04-25T00:03:47;100304.13;;;7.89;59.41
7524;BME280;3803;51.666;7.630;2023-04-25T00:04:08;100309.34;;;7.89;59.05
7524;BME280;3803;51.666;7.630;2023-04-25T00:04:29;100313.00;;;7.96;59.53
7524;BME280;3803;51.666;7.630;2023-04-25T00:04:50;100300.78;;;7.93;59.20
7524;BME280;3803;51.666;7.630;2023-04-25T00:05:10;100306.94;;;7.95;59.07
7524;BME280;3803;51.666;7.630;2023-04-25T00:05:31;100299.03;;;7.92;59.23
7524;BME280;3803;51.666;7.630;2023-04-25T00:05:52;100295.69;;;7.97;58.96
7524;BME280;3803;51.666;7.630;2023-04-25T00:06:14;100321.31;;;8.13;59.29
7524;BME280;3803;51.666;7.630;2023-04-25T00:06:34;100312.69;;;8.14;58.80
7524;BME280;3803;51.666;7.630;2023-04-25T00:06:56;100303.13;;;8.13;58.91
7524;BME280;3803;51.666;7.630;2023-04-25T00:07:17;100303.13;;;8.13;58.91
7524;BME280;3803;51.666;7.630;2023-04-25T00:07:38;100300.47;;;8.12;59.00
7524;BME280;3803;51.666;7.630;2023-04-25T00:07:59;100300.56;;;8.15;59.12
7524;BME280;3803;51.666;7.630;2023-04-25T00:08:20;100302.16;;;8.09;58.59
7524;BME280;3803;51.666;7.630;2023-04-25T00:08:41;100322.44;;;8.21;58.68
7524;BME280;3803;51.666;7.630;2023-04-25T00:09:03;100314.38;;;8.14;58.73
7524;BME280;3803;51.666;7.630;2023-04-25T00:09:23;100306.47;;;8.09;59.17
7524;BME280;3803;51.666;7.630;2023-04-25T00:09:44;100303.00;;;8.10;59.53
7524;BME280;3803;51.666;7.630;2023-04-25T00:10:06;100303.91;;;8.11;59.21
7524;BME280;3803;51.666;7.630;2023-04-25T00:10:26;100292.63;;;8.10;59.02
7524;BME280;3803;51.666;7.630;2023-04-25T00:10:47;100312.13;;;8.25;58.71
7524;BME280;3803;51.666;7.630;2023-04-25T00:11:09;100308.53;;;8.21;58.93
7524;BME280;3803;51.666;7.630;2023-04-25T00:11:29;100293.72;;;8.18;58.80
7524;BME280;3803;51.666;7.630;2023-04-25T00:11:51;100299.88;;;8.20;58.67
7524;BME280;3803;51.666;7.630;2023-04-25T00:13:29;100326.41;;;8.39;58.89
7524;BME280;3803;51.666;7.630;2023-04-25T00:13:50;100310.81;;;8.39;58.79
7524;BME280;3803;51.666;7.630;2023-04-25T00:14:11;100312.72;;;8.45;58.83
7524;BME280;3803;51.666;7.630;2023-04-25T00:14:31;100314.44;;;8.44;58.68
7524;BME280;3803;51.666;7.630;2023-04-25T00:14:54;100303.84;;;8.38;58.54
7524;BME280;3803;51.666;7.630;2023-04-25T00:15:17;100307.50;;;8.45;58.57
7524;BME280;3803;51.666;7.630;2023-04-25T00:15:38;100324.19;;;8.52;58.43
7524;BME280;3803;51.666;7.630;2023-04-25T00:15:59;100317.88;;;8.43;58.15
7524;BME280;3803;51.666;7.630;2023-04-25T00:16:20;100303.94;;;8.41;58.06
7524;BME280;3803;51.666;7.630;2023-04-25T00:16:40;100320.81;;;8.56;58.54
7524;BME280;3803;51.666;7.630;2023-04-25T00:17:04;100326.03;;;8.56;58.11
7524;BME280;3803;51.666;7.630;2023-04-25T00:17:24;100302.56;;;8.53;58.33
7524;BME280;3803;51.666;7.630;2023-04-25T00:18:03;100325.13;;;8.54;58.39
7524;BME280;3803;51.666;7.630;2023-04-25T00:18:24;100311.09;;;8.48;58.56
7524;BME280;3803;51.666;7.630;2023-04-25T00:18:45;100314.72;;;8.54;58.45
7524;BME280;3803;51.666;7.630;2023-04-25T00:19:11;100320.88;;;8.57;58.28
7524;BME280;3803;51.666;7.630;2023-04-25T00:19:33;100295.41;;;8.45;58.73
7524;BME280;3803;51.666;7.630;2023-04-25T00:19:55;100303.28;;;8.48;58.59
7524;BME280;3803;51.666;7.630;2023-04-25T00:20:16;100312.91;;;8.51;58.60
7524;BME280;3803;51.666;7.630;2023-04-25T00:20:36;100313.91;;;8.56;58.53
7524;BME280;3803;51.666;7.630;2023-04-25T00:20:57;100316.47;;;8.55;58.63
7524;BME280;3803;51.666;7.630;2023-04-25T00:21:18;100308.66;;;8.55;58.25
7524;BME280;3803;51.666;7.630;2023-04-25T00:21:40;100318.31;;;8.59;58.53
7524;BME280;3803;51.666;7.630;2023-04-25T00:22:00;100307.81;;;8.56;58.43
7524;BME280;3803;51.666;7.630;2023-04-25T00:22:21;100313.09;;;8.59;58.39
7524;BME280;3803;51.666;7.630;2023-04-25T00:22:41;100309.59;;;8.57;58.37
7524;BME280;3803;51.666;7.630;2023-04-25T00:23:02;100312.16;;;8.55;58.30
7524;BME280;3803;51.666;7.630;2023-04-25T00:23:23;100315.00;;;8.63;58.54
7524;BME280;3803;51.666;7.630;2023-04-25T00:23:44;100314.00;;;8.59;58.42
7524;BME280;3803;51.666;7.630;2023-04-25T00:24:07;100312.44;;;8.65;58.29
7524;BME280;3803;51.666;7.630;2023-04-25T00:24:27;100317.78;;;8.69;58.62
7524;BME280;3803;51.666;7.630;2023-04-25T00:24:48;100311.69;;;8.69;58.46
7524;BME280;3803;51.666;7.630;2023-04-25T00:25:09;100329.06;;;8.70;58.37
7524;BME280;3803;51.666;7.630;2023-04-25T00:25:29;100313.50;;;8.71;58.33
7524;BME280;3803;51.666;7.630;2023-04-25T00:25:50;100320.66;;;8.79;58.45
7524;BME280;3803;51.666;7.630;2023-04-25T00:26:11;100313.69;;;8.77;58.26
7524;BME280;3803;51.666;7.630;2023-04-25T00:26:34;100329.47;;;8.84;57.92
7524;BME280;3803;51.666;7.630;2023-04-25T00:26:55;100307.59;;;8.77;58.04
7524;BME280;3803;51.666;7.630;2023-04-25T00:27:15;100323.28;;;8.80;58.30
7524;BME280;3803;51.666;7.630;2023-04-25T00:27:36;100304.78;;;8.69;58.30
7524;BME280;3803;51.666;7.630;2023-04-25T00:27:57;100309.34;;;8.78;57.79
7524;BME280;3803;51.666;7.630;2023-04-25T00:28:18;100318.88;;;8.77;58.25
7524;BME280;3803;51.666;7.630;2023-04-25T00:28:39;100322.56;;;8.86;57.90
7524;BME280;3803;51.666;7.630;2023-04-25T00:29:00;100326.19;;;8.91;57.88
7524;BME280;3803;51.666;7.630;2023-04-25T00:29:21;100322.50;;;8.83;58.13
7524;BME280;3803;51.666;7.630;2023-04-25T00:29:41;100310.31;;;8.82;58.06
7524;BME280;3803;51.666;7.630;2023-04-25T00:30:02;100328.66;;;8.86;58.13
7524;BME280;3803;51.666;7.630;2023-04-25T00:30:23;100308.53;;;8.79;57.91
7524;BME280;3803;51.666;7.630;2023-04-25T00:30:43;100320.81;;;8.85;58.20
7524;BME280;3803;51.666;7.630;2023-04-25T00:31:04;100318.34;;;8.89;57.96
7524;BME280;3803;51.666;7.630;2023-04-25T00:31:25;100305.22;;;8.85;57.93
7524;BME280;3803;51.666;7.630;2023-04-25T00:31:45;100326.28;;;8.94;57.68
7524;BME280;3803;51.666;7.630;2023-04-25T00:32:06;100305.09;;;8.82;58.01
7524;BME280;3803;51.666;7.630;2023-04-25T00:32:26;100310.44;;;8.86;58.04
7524;BME280;3803;51.666;7.630;2023-04-25T00:32:47;100319.19;;;8.90;57.54
7524;BME280;3803;51.666;7.630;2023-04-25T00:33:09;100319.19;;;8.90;57.77
7524;BME280;3803;51.666;7.630;2023-04-25T00:33:30;100319.38;;;8.96;57.58
7524;BME280;3803;51.666;7.630;2023-04-25T00:33:50;100315.75;;;8.89;58.29
7524;BME280;3803;51.666;7.630;2023-04-25T00:34:11;100321.97;;;8.95;57.93
7524;BME280;3803;51.666;7.630;2023-04-25T00:34:31;100320.16;;;8.94;57.58
7524;BME280;3803;51.666;7.630;2023-04-25T00:34:52;100321.84;;;8.91;57.67
7524;BME280;3803;51.666;7.630;2023-04-25T00:35:13;100315.69;;;8.88;57.83
7524;BME280;3803;51.666;7.630;2023-04-25T00:36:35;100317.44;;;8.89;57.85
7524;BME280;3803;51.666;7.630;2023-04-25T00:36:56;100321.72;;;8.87;57.81
7524;BME280;3803;51.666;7.630;2023-04-25T00:37:17;100313.94;;;8.87;58.08
7524;BME280;3803;51.666;7.630;2023-04-25T00:37:38;100321.84;;;8.91;58.10
7524;BME280;3803;51.666;7.630;2023-04-25T00:37:59;100311.31;;;8.87;58.30
7524;BME280;3803;51.666;7.630;2023-04-25T00:38:19;100313.03;;;8.86;57.98
7524;BME280;3803;51.666;7.630;2023-04-25T00:38:40;100324.50;;;8.93;58.08
7524;BME280;3803;51.666;7.630;2023-04-25T00:39:00;100310.41;;;8.85;58.06
7524;BME280;3803;51.666;7.630;2023-04-25T00:39:21;100319.13;;;8.87;57.86
7524;BME280;3803;51.666;7.630;2023-04-25T00:39:42;100313.84;;;8.84;58.14
7524;BME280;3803;51.666;7.630;2023-04-25T00:40:05;100308.53;;;8.81;58.35
7524;BME280;3803;51.666;7.630;2023-04-25T00:40:26;100312.88;;;8.80;57.94
7524;BME280;3803;51.666;7.630;2023-04-25T00:40:47;100317.25;;;8.81;58.32
7524;BME280;3803;51.666;7.630;2023-04-25T00:41:08;100315.81;;;8.93;58.08
7524;BME280;3803;51.666;7.630;2023-04-25T00:41:28;100306.91;;;8.83;58.25
7524;BME280;3803;51.666;7.630;2023-04-25T00:41:50;100328.81;;;8.91;58.27
7524;BME280;3803;51.666;7.630;2023-04-25T00:42:13;100317.16;;;8.78;58.54
7524;BME280;3803;51.666;7.630;2023-04-25T00:42:35;100311.16;;;8.81;58.25
7524;BME280;3803;51.666;7.630;2023-04-25T00:42:56;100303.47;;;8.85;58.16
7524;BME280;3803;51.666;7.630;2023-04-25T00:43:16;100327.84;;;8.89;58.24
7524;BME280;3803;51.666;7.630;2023-04-25T00:43:37;100316.47;;;8.85;58.33
7524;BME280;3803;51.666;7.630;2023-04-25T00:44:00;100324.59;;;8.96;58.02
7524;BME280;3803;51.666;7.630;2023-04-25T00:44:22;100318.22;;;8.86;58.30
7524;BME280;3803;51.666;7.630;2023-04-25T00:44:43;100301.59;;;8.80;58.35
7524;BME280;3803;51.666;7.630;2023-04-25T00:45:06;100319.84;;;8.81;58.23
7524;BME280;3803;51.666;7.630;2023-04-25T00:45:28;100301.69;;;8.83;58.16
7524;BME280;3803;51.666;7.630;2023-04-25T00:45:52;100327.91;;;8.90;58.07
7524;BME280;3803;51.666;7.630;2023-04-25T00:46:13;100301.50;;;8.76;58.53
7524;BME280;3803;51.666;7.630;2023-04-25T00:46:35;100309.31;;;8.76;58.45
7524;BME280;3803;51.666;7.630;2023-04-25T00:46:56;100312.66;;;8.72;58.27
7524;BME280;3803;51.666;7.630;2023-04-25T00:47:17;100302.25;;;8.72;58.50
7524;BME280;3803;51.666;7.630;2023-04-25T00:47:37;100308.34;;;8.73;58.48
7524;BME280;3803;51.666;7.630;2023-04-25T00:47:59;100295.94;;;8.64;58.81
7524;BME280;3803;51.666;7.630;2023-04-25T00:48:23;100309.31;;;8.76;58.49
7524;BME280;3803;51.666;7.630;2023-04-25T00:48:43;100312.59;;;8.69;58.72
7524;BME280;3803;51.666;7.630;2023-04-25T00:49:04;100307.31;;;8.68;58.39
7524;BME280;3803;51.666;7.630;2023-04-25T00:49:25;100318.88;;;8.77;58.63
7524;BME280;3803;51.666;7.630;2023-04-25T00:49:45;100310.94;;;8.73;58.93
7524;BME280;3803;51.666;7.630;2023-04-25T00:50:07;100313.72;;;8.79;58.90
7524;BME280;3803;51.666;7.630;2023-04-25T00:50:27;100330.25;;;8.81;58.75
7524;BME280;3803;51.666;7.630;2023-04-25T00:50:52;100304.13;;;8.78;58.35
7524;BME280;3803;51.666;7.630;2023-04-25T00:51:16;100300.41;;;8.68;58.46
7524;BME280;3803;51.666;7.630;2023-04-25T00:51:39;100303.16;;;8.73;58.27
7524;BME280;3803;51.666;7.630;2023-04-25T00:52:00;100318.97;;;8.81;58.38
7524;BME280;3803;51.666;7.630;2023-04-25T00:52:20;100317.31;;;8.83;58.33
7524;BME280;3803;51.666;7.630;2023-04-25T00:52:43;100305.63;;;8.68;58.81
7524;BME280;3803;51.666;7.630;2023-04-25T00:53:04;100309.25;;;8.75;58.36
7524;BME280;3803;51.666;7.630;2023-04-25T00:53:27;100309.25;;;8.75;58.73
7524;BME280;3803;51.666;7.630;2023-04-25T00:53:49;100324.16;;;8.81;58.58
7524;BME280;3803;51.666;7.630;2023-04-25T00:54:12;100315.50;;;8.80;59.06
7524;BME280;3803;51.666;7.630;2023-04-25T00:54:33;100305.88;;;8.77;58.83
7524;BME280;3803;51.666;7.630;2023-04-25T00:54:53;100312.97;;;8.83;58.70
7524;BME280;3803;51.666;7.630;2023-04-25T00:55:14;100306.72;;;8.76;58.73
7524;BME280;3803;51.666;7.630;2023-04-25T00:55:36;100300.72;;;8.79;59.05
7524;BME280;3803;51.666;7.630;2023-04-25T00:55:56;100312.22;;;8.87;58.89
7524;BME280;3803;51.666;7.630;2023-04-25T00:56:17;100327.06;;;8.91;58.72
7524;BME280;3803;51.666;7.630;2023-04-25T00:56:38;100298.25;;;8.84;58.43
7524;BME280;3803;51.666;7.630;2023-04-25T00:56:59;100309.69;;;8.90;58.35
7524;BME280;3803;51.666;7.630;2023-04-25T00:57:21;100312.41;;;8.95;58.48
7524;BME280;3803;51.666;7.630;2023-04-25T00:57:42;100317.56;;;8.92;58.67
7524;BME280;3803;51.666;7.630;2023-04-25T00:58:03;100308.84;;;8.91;58.38
7524;BME280;3803;51.666;7.630;2023-04-25T00:58:24;100301.94;;;8.92;58.29
7524;BME280;3803;51.666;7.630;2023-04-25T00:58:45;100318.63;;;9.00;58.41
7524;BME280;3803;51.666;7.630;2023-04-25T00:59:06;100316.06;;;9.02;58.54
7524;BME280;3803;51.666;7.630;2023-04-25T00:59:27;100319.56;;;9.02;58.15
7524;BME280;3803;51.666;7.630;2023-04-25T00:59:50;100301.09;;;8.93;58.75
7524;BME280;3803;51.666;7.630;2023-04-25T01:00:11;100294.97;;;8.91;58.63
7524;BME280;3803;51.666;7.630;2023-04-25T01:00:34;100311.63;;;8.98;58.58
7524;BME280;3803;51.666;7.630;2023-04-25T01:00:56;100321.41;;;9.07;58.54
7524;BME280;3803;51.666;7.630;2023-04-25T01:01:17;100309.75;;;8.94;58.56
7524;BME280;3803;51.666;7.630;2023-04-25T01:01:38;100318.66;;;9.02;58.80
7524;BME280;3803;51.666;7.630;2023-04-25T01:02:12;100303.69;;;8.93;58.52
7524;BME280;3803;51.666;7.630;2023-04-25T01:02:33;100301.16;;;8.95;58.75
7524;BME280;3803;51.666;7.630;2023-04-25T01:02:55;100306.47;;;8.99;58.31
7524;BME280;3803;51.666;7.630;2023-04-25T01:03:17;100310.03;;;9.03;58.47
7524;BME280;3803;51.666;7.630;2023-04-25T01:03:40;100305.56;;;8.99;58.70
7524;BME280;3803;51.666;7.630;2023-04-25T01:04:10;100320.59;;;9.09;58.37
7524;BME280;3803;51.666;7.630;2023-04-25T01:04:31;100316.09;;;9.03;58.21
7524;BME280;3803;51.666;7.630;2023-04-25T01:04:52;100307.38;;;9.01;58.49
7524;BME280;3803;51.666;7.630;2023-04-25T01:05:13;100316.28;;;9.10;58.66
7524;BME280;3803;51.666;7.630;2023-04-25T01:05:34;100322.44;;;9.13;58.71
7524;BME280;3803;51.666;7.630;2023-04-25T01:05:54;100316.22;;;9.07;58.75
7524;BME280;3803;51.666;7.630;2023-04-25T01:06:16;100318.09;;;9.14;58.44
7524;BME280;3803;51.666;7.630;2023-04-25T01:06:37;100315.44;;;9.11;58.29
7524;BME280;3803;51.666;7.630;2023-04-25T01:06:58;100312.00;;;9.12;58.56
7524;BME280;3803;51.666;7.630;2023-04-25T01:07:19;100334.69;;;9.17;58.76
7524;BME280;3803;51.666;7.630;2023-04-25T01:07:41;100320.63;;;9.11;58.60
7524;BME280;3803;51.666;7.630;2023-04-25T01:08:02;100308.25;;;9.02;58.50
7524;BME280;3803;51.666;7.630;2023-04-25T01:08:24;100320.34;;;9.00;58.64
7524;BME280;3803;51.666;7.630;2023-04-25T01:08:47;100317.88;;;9.04;58.75
7524;BME280;3803;51.666;7.630;2023-04-25T01:09:09;100316.16;;;9.05;58.87
7524;BME280;3803;51.666;7.630;2023-04-25T01:09:30;100304.09;;;9.09;58.89
7524;BME280;3803;51.666;7.630;2023-04-25T01:09:52;100314.53;;;9.09;58.61
7524;BME280;3803;51.666;7.630;2023-04-25T01:10:13;100323.41;;;9.17;58.48
7524;BME280;3803;51.666;7.630;2023-04-25T01:10:33;100320.94;;;9.22;58.63
7524;BME280;3803;51.666;7.630;2023-04-25T01:10:54;100306.84;;;9.13;58.50
7524;BME280;3803;51.666;7.630;2023-04-25T01:11:14;100318.09;;;9.14;58.61
7524;BME280;3803;51.666;7.630;2023-04-25T01:11:35;100316.34;;;9.13;58.24
7524;BME280;3803;51.666;7.630;2023-04-25T01:11:57;100310.22;;;9.11;58.56
7524;BME280;3803;51.666;7.630;2023-04-25T01:12:18;100322.56;;;9.18;58.64
7524;BME280;3803;51.666;7.630;2023-04-25T01:12:39;100326.88;;;9.17;58.60
7524;BME280;3803;51.666;7.630;2023-04-25T01:13:00;100314.63;;;9.13;58.38
7524;BME280;3803;51.666;7.630;2023-04-25T01:13:20;100313.00;;;9.17;58.75
7524;BME280;3803;51.666;7.630;2023-04-25T01:13:41;100305.88;;;9.10;58.77
7524;BME280;3803;51.666;7.630;2023-04-25T01:14:02;100318.94;;;9.11;58.75
7524;BME280;3803;51.666;7.630;2023-04-25T01:14:23;100319.78;;;9.12;58.96
7524;BME280;3803;51.666;7.630;2023-04-25T01:14:43;100327.00;;;9.22;58.61
7524;BME280;3803;51.666;7.630;2023-04-25T01:15:05;100317.19;;;9.12;58.82
7524;BME280;3803;51.666;7.630;2023-04-25T01:15:25;100312.03;;;9.13;58.66
7524;BME280;3803;51.666;7.630;2023-04-25T01:15:47;100332.13;;;9.19;58.75
7524;BME280;3803;51.666;7.630;2023-04-25T01:16:08;100311.13;;;9.11;58.68
7524;BME280;3803;51.666;7.630;2023-04-25T01:16:28;100313.22;;;8.93;59.33
7524;BME280;3803;51.666;7.630;2023-04-25T01:16:50;100317.63;;;8.95;59.31
7524;BME280;3803;51.666;7.630;2023-04-25T01:17:11;100323.50;;;8.88;59.79
7524;BME280;3803;51.666;7.630;2023-04-25T01:17:34;100326.03;;;8.85;59.92
7524;BME280;3803;51.666;7.630;2023-04-25T01:17:55;100308.25;;;8.70;60.12
7524;BME280;3803;51.666;7.630;2023-04-25T01:18:16;100329.38;;;8.81;60.09
7524;BME280;3803;51.666;7.630;2023-04-25T01:18:38;100334.44;;;8.76;60.67
7524;BME280;3803;51.666;7.630;2023-04-25T01:18:59;100318.63;;;8.68;60.63
7524;BME280;3803;51.666;7.630;2023-04-25T01:19:20;100340.41;;;8.72;60.84
7524;BME280;3803;51.666;7.630;2023-04-25T01:19:41;100310.47;;;8.57;60.87
7524;BME280;3803;51.666;7.630;2023-04-25T01:20:05;100320.22;;;8.63;60.94
7524;BME280;3803;51.666;7.630;2023-04-25T01:20:26;100311.34;;;8.58;61.28
7524;BME280;3803;51.666;7.630;2023-04-25T01:20:50;100337.69;;;8.67;61.45
7524;BME280;3803;51.666;7.630;2023-04-25T01:21:12;100307.75;;;8.53;61.44
7524;BME280;3803;51.666;7.630;2023-04-25T01:21:33;100318.22;;;8.56;61.62
7524;BME280;3803;51.666;7.630;2023-04-25T01:21:54;100311.19;;;8.52;61.53
7524;BME280;3803;51.666;7.630;2023-04-25T01:22:15;100313.88;;;8.55;61.79
7524;BME280;3803;51.666;7.630;2023-04-25T01:22:43;100314.59;;;8.50;61.87
7524;BME280;3803;51.666;7.630;2023-04-25T01:23:03;100317.25;;;8.52;62.01
7524;BME280;3803;51.666;7.630;2023-04-25T01:23:25;100311.28;;;8.55;62.08
7524;BME280;3803;51.666;7.630;2023-04-25T01:23:46;100322.69;;;8.60;62.02
7524;BME280;3803;51.666;7.630;2023-04-25T01:24:07;100314.72;;;8.54;61.92
7524;BME280;3803;51.666;7.630;2023-04-25T01:24:28;100320.75;;;8.53;62.29
7524;BME280;3803;51.666;7.630;2023-04-25T01:24:49;100311.09;;;8.48;62.19
7524;BME280;3803;51.666;7.630;2023-04-25T01:25:10;100331.19;;;8.54;62.29
7524;BME280;3803;51.666;7.630;2023-04-25T01:25:31;100318.94;;;8.50;62.38
7524;BME280;3803;51.666;7.630;2023-04-25T01:25:52;100323.25;;;8.49;62.57
7524;BME280;3803;51.666;7.630;2023-04-25T01:26:13;100330.38;;;8.57;62.41
7524;BME280;3803;51.666;7.630;2023-04-25T01:26:35;100311.94;;;8.47;62.60
7524;BME280;3803;51.666;7.630;2023-04-25T01:26:56;100327.78;;;8.57;62.78
7524;BME280;3803;51.666;7.630;2023-04-25T01:27:19;100320.63;;;8.48;62.68
7524;BME280;3803;51.666;7.630;2023-04-25T01:27:41;100313.59;;;8.45;62.96
7524;BME280;3803;51.666;7.630;2023-04-25T01:28:02;100328.56;;;8.53;62.97
7524;BME280;3803;51.666;7.630;2023-04-25T01:28:23;100320.56;;;8.46;62.98
7524;BME280;3803;51.666;7.630;2023-04-25T01:28:44;100326.88;;;8.55;63.00
7524;BME280;3803;51.666;7.630;2023-04-25T01:29:07;100306.41;;;8.36;63.07
7524;BME280;3803;51.666;7.630;2023-04-25T01:29:31;100329.22;;;8.47;63.42
7524;BME280;3803;51.666;7.630;2023-04-25T01:29:54;100332.88;;;8.52;63.08
7524;BME280;3803;51.666;7.630;2023-04-25T01:30:15;100327.59;;;8.50;63.51
7524;BME280;3803;51.666;7.630;2023-04-25T01:30:36;100324.88;;;8.46;63.41
7524;BME280;3803;51.666;7.630;2023-04-25T01:30:57;100309.91;;;8.39;63.62
7524;BME280;3803;51.666;7.630;2023-04-25T01:31:19;100308.13;;;8.36;63.32
7524;BME280;3803;51.666;7.630;2023-04-25T01:31:40;100323.91;;;8.42;63.57
7524;BME280;3803;51.666;7.630;2023-04-25T01:32:01;100320.56;;;8.46;63.55
7524;BME280;3803;51.666;7.630;2023-04-25T01:32:23;100318.69;;;8.41;63.97
7524;BME280;3803;51.666;7.630;2023-04-25T01:32:44;100328.38;;;8.46;63.73
7524;BME280;3803;51.666;7.630;2023-04-25T01:33:05;100330.13;;;8.47;63.53
7524;BME280;3803;51.666;7.630;2023-04-25T01:33:28;100316.03;;;8.39;63.88
7524;BME280;3803;51.666;7.630;2023-04-25T01:33:49;100330.91;;;8.45;63.79
7524;BME280;3803;51.666;7.630;2023-04-25T01:34:10;100314.16;;;8.35;64.18
7524;BME280;3803;51.666;7.630;2023-04-25T01:34:31;100324.00;;;8.45;64.13
7524;BME280;3803;51.666;7.630;2023-04-25T01:34:52;100328.38;;;8.46;63.90
7524;BME280;3803;51.666;7.630;2023-04-25T01:35:13;100316.03;;;8.39;63.72
7524;BME280;3803;51.666;7.630;2023-04-25T01:35:34;100315.28;;;8.43;63.91
7524;BME280;3803;51.666;7.630;2023-04-25T01:35:55;100313.75;;;8.50;63.70
7524;BME280;3803;51.666;7.630;2023-04-25T01:36:16;100333.13;;;8.61;63.72
7524;BME280;3803;51.666;7.630;2023-04-25T01:36:36;100325.13;;;8.54;64.03
7524;BME280;3803;51.666;7.630;2023-04-25T01:36:59;100326.78;;;8.52;64.11
7524;BME280;3803;51.666;7.630;2023-04-25T01:37:20;100329.41;;;8.52;63.91
7524;BME280;3803;51.666;7.630;2023-04-25T01:37:42;100322.28;;;8.46;64.24
7524;BME280;3803;51.666;7.630;2023-04-25T01:38:05;100325.91;;;8.51;63.98
7524;BME280;3803;51.666;7.630;2023-04-25T01:38:27;100333.91;;;8.59;64.04
7524;BME280;3803;51.666;7.630;2023-04-25T01:38:48;100311.44;;;8.61;63.81
7524;BME280;3803;51.666;7.630;2023-04-25T01:39:09;100329.91;;;8.69;63.16
7524;BME280;3803;51.666;7.630;2023-04-25T01:39:30;100341.47;;;8.79;63.55
7524;BME280;3803;51.666;7.630;2023-04-25T01:39:51;100319.53;;;8.70;63.44
7524;BME280;3803;51.666;7.630;2023-04-25T01:40:13;100335.06;;;8.67;63.30
7524;BME280;3803;51.666;7.630;2023-04-25T01:40:33;100341.47;;;8.79;63.46
7524;BME280;3803;51.666;7.630;2023-04-25T01:40:55;100334.50;;;8.77;63.77
7524;BME280;3803;51.666;7.630;2023-04-25T01:41:16;100338.81;;;8.77;63.67
7524;BME280;3803;51.666;7.630;2023-04-25T01:41:38;100333.53;;;8.74;63.38
7524;BME280;3803;51.666;7.630;2023-04-25T01:41:59;100332.47;;;8.67;63.70
7524;BME280;3803;51.666;7.630;2023-04-25T01:42:20;100334.50;;;8.77;63.39
7524;BME280;3803;51.666;7.630;2023-04-25T01:42:43;100327.34;;;8.70;63.26
7524;BME280;3803;51.666;7.630;2023-04-25T01:43:04;100330.03;;;8.73;63.53
7524;BME280;3803;51.666;7.630;2023-04-25T01:43:24;100323.00;;;8.71;63.17
7524;BME280;3803;51.666;7.630;2023-04-25T01:43:46;100332.81;;;8.80;63.28
7524;BME280;3803;51.666;7.630;2023-04-25T01:44:07;100318.78;;;8.74;63.40
7524;BME280;3803;51.666;7.630;2023-04-25T01:44:28;100325.78;;;8.75;63.49
7524;BME280;3803;51.666;7.630;2023-04-25T01:44:48;100333.59;;;8.77;63.43
7524;BME280;3803;51.666;7.630;2023-04-25T01:45:10;100324.09;;;8.77;63.45
7524;BME280;3803;51.666;7.630;2023-04-25T01:45:31;100330.97;;;8.75;63.11
7524;BME280;3803;51.666;7.630;2023-04-25T01:46:03;100325.78;;;8.75;63.32
7524;BME280;3803;51.666;7.630;2023-04-25T01:46:24;100317.91;;;8.74;63.33
7524;BME280;3803;51.666;7.630;2023-04-25T01:46:45;100334.56;;;8.81;63.40
7524;BME280;3803;51.666;7.630;2023-04-25T01:47:06;100323.28;;;8.80;63.06
7524;BME280;3803;51.666;7.630;2023-04-25T01:47:26;100338.19;;;8.86;63.15
7524;BME280;3803;51.666;7.630;2023-04-25T01:47:48;100344.25;;;8.85;63.20
7524;BME280;3803;51.666;7.630;2023-04-25T01:48:12;100332.91;;;8.83;62.90
7524;BME280;3803;51.666;7.630;2023-04-25T01:48:33;100331.22;;;8.85;63.03
7524;BME280;3803;51.666;7.630;2023-04-25T01:48:54;100336.31;;;8.82;63.13
7524;BME280;3803;51.666;7.630;2023-04-25T01:49:15;100327.56;;;8.78;63.09
7524;BME280;3803;51.666;7.630;2023-04-25T01:49:37;100316.09;;;8.71;63.10
7524;BME280;3803;51.666;7.630;2023-04-25T01:49:58;100327.53;;;8.76;63.35
7524;BME280;3803;51.666;7.630;2023-04-25T01:50:19;100315.25;;;8.72;63.61
7524;BME280;3803;51.666;7.630;2023-04-25T01:50:40;100331.84;;;8.76;63.51
7524;BME280;3803;51.666;7.630;2023-04-25T01:51:01;100331.09;;;8.80;63.55
7524;BME280;3803;51.666;7.630;2023-04-25T01:51:23;100334.53;;;8.79;63.46
7524;BME280;3803;51.666;7.630;2023-04-25T01:51:44;100319.59;;;8.72;63.30
7524;BME280;3803;51.666;7.630;2023-04-25T01:52:04;100333.34;;;8.68;63.80
7524;BME280;3803;51.666;7.630;2023-04-25T01:52:25;100315.63;;;8.56;63.93
7524;BME280;3803;51.666;7.630;2023-04-25T01:52:46;100326.88;;;8.55;64.03
7524;BME280;3803;51.666;7.630;2023-04-25T01:53:09;100347.97;;;8.64;64.12
7524;BME280;3803;51.666;7.630;2023-04-25T01:53:30;100336.56;;;8.60;63.94
7524;BME280;3803;51.666;7.630;2023-04-25T01:53:51;100336.50;;;8.57;63.98
7524;BME280;3803;51.666;7.630;2023-04-25T01:54:13;100350.63;;;8.66;63.95
7524;BME280;3803;51.666;7.630;2023-04-25T01:54:34;100341.72;;;8.59;64.10
7524;BME280;3803;51.666;7.630;2023-04-25T01:54:57;100325.84;;;8.49;64.04
7524;BME280;3803;51.666;7.630;2023-04-25T01:55:17;100332.16;;;8.58;64.32
7524;BME280;3803;51.666;7.630;2023-04-25T01:55:53;100331.88;;;8.48;64.17
7524;BME280;3803;51.666;7.630;2023-04-25T01:56:18;100334.63;;;8.53;64.20
7524;BME280;3803;51.666;7.630;2023-04-25T01:56:39;100332.97;;;8.55;64.33
7524;BME280;3803;51.666;7.630;2023-04-25T01:57:02;100349.66;;;8.62;64.13
7524;BME280;3803;51.666;7.630;2023-04-25T01:57:23;100335.59;;;8.57;63.89
7524;BME280;3803;51.666;7.630;2023-04-25T01:57:43;100336.50;;;8.57;64.25
7524;BME280;3803;51.666;7.630;2023-04-25T01:58:04;100340.91;;;8.60;64.37
7524;BME280;3803;51.666;7.630;2023-04-25T01:59:03;100351.59;;;8.69;64.07
7524;BME280;3803;51.666;7.630;2023-04-25T01:59:43;100351.50;;;8.66;64.43
7524;BME280;3803;51.666;7.630;2023-04-25T02:00:36;100347.13;;;8.65;64.37
7524;BME280;3803;51.666;7.630;2023-04-25T02:01:01;100349.84;;;8.68;63.96
7524;BME280;3803;51.666;7.630;2023-04-25T02:01:27;100337.28;;;8.55;64.33